Time;durP1;ratioP1;P1;durP2;ratioP2;P2;SDS_P1;SDS_P2;PMS_P1;PMS_P2;Temp;Humidity;BMP_temperature;BMP_pressure;BME280_temperature;BME280_humidity;BME280_pressure;Samples;Min_cycle;Max_cycle;Signal;HPM_P1;HPM_P2
2022/01/28 00:02:43;;;;;;;0.50;0.50;;;5.00;99.90;;;;;;5054176;28;20216;-79
2022/01/28 00:05:16;;;;;;;0.40;0.40;;;5.00;99.90;;;;;;5053353;28;20201;-78
2022/01/28 00:07:43;;;;;;;2.15;1.33;;;4.90;99.90;;;;;;5053305;28;20222;-78
2022/01/28 00:10:11;;;;;;;0.40;0.40;;;4.90;99.90;;;;;;5053412;28;20202;-79
2022/01/28 00:12:49;;;;;;;0.85;0.85;;;4.80;99.90;;;;;;5052697;28;20214;-78
2022/01/28 00:15:22;;;;;;;0.40;0.40;;;4.70;99.90;;;;;;5055335;28;20185;-78
2022/01/28 00:21:02;;;;;;;1.25;1.25;;;4.70;99.90;;;;;;5051519;28;20687;-80
2022/01/28 00:37:24;;;;;;;0.40;0.40;;;4.60;99.90;;;;;;5056195;28;20274;-79
2022/01/28 00:39:51;;;;;;;0.40;0.40;;;4.50;99.90;;;;;;5055996;28;20285;-79
2022/01/28 00:42:19;;;;;;;0.40;0.40;;;4.50;99.90;;;;;;5059424;28;20248;-79
2022/01/28 00:44:45;;;;;;;0.40;0.40;;;4.50;99.90;;;;;;5061898;28;20198;-80
2022/01/28 00:47:12;;;;;;;2.60;1.02;;;4.40;99.90;;;;;;5063734;28;20202;-79
2022/01/28 00:49:39;;;;;;;0.40;0.30;;;4.40;99.90;;;;;;5061413;28;20219;-80
2022/01/28 00:52:06;;;;;;;0.40;0.40;;;4.40;99.90;;;;;;5057381;28;20214;-78
2022/01/28 00:54:32;;;;;;;0.50;0.50;;;4.40;99.90;;;;;;5062326;28;20576;-77
2022/01/28 00:56:59;;;;;;;0.40;0.30;;;4.40;99.90;;;;;;5062388;28;20191;-79
2022/01/28 00:59:27;;;;;;;0.40;0.40;;;4.40;99.90;;;;;;5060569;28;20214;-78
2022/01/28 01:01:53;;;;;;;4.00;1.40;;;4.40;99.90;;;;;;5057676;28;20195;-78
2022/01/28 01:04:20;;;;;;;0.40;0.40;;;4.40;99.90;;;;;;5056523;28;20201;-78
2022/01/28 01:06:47;;;;;;;0.68;0.68;;;4.40;99.90;;;;;;5056571;28;20203;-78
2022/01/28 01:09:13;;;;;;;0.68;0.68;;;4.40;99.90;;;;;;5053474;28;20218;-78
2022/01/28 01:11:41;;;;;;;0.40;0.32;;;4.40;99.90;;;;;;5052012;28;20673;-78
2022/01/28 01:14:08;;;;;;;0.40;0.40;;;4.40;99.90;;;;;;5051606;28;20226;-78
2022/01/28 01:16:46;;;;;;;0.40;0.40;;;4.40;99.90;;;;;;5051590;28;20202;-79
2022/01/28 01:19:19;;;;;;;0.40;0.40;;;4.40;99.90;;;;;;5051162;28;20212;-78
2022/01/28 01:21:46;;;;;;;0.40;0.40;;;4.30;99.90;;;;;;5051675;28;20199;-78
2022/01/28 01:24:21;;;;;;;0.88;0.85;;;4.30;99.90;;;;;;5051542;28;20275;-77
2022/01/28 01:26:48;;;;;;;27.60;1.02;;;4.30;99.90;;;;;;5051188;28;20194;-78
2022/01/28 01:29:17;;;;;;;0.40;0.40;;;4.30;99.90;;;;;;5050721;28;20223;-78
2022/01/28 01:31:46;;;;;;;2.50;0.88;;;4.20;99.90;;;;;;5051717;28;20253;-78
2022/01/28 01:34:16;;;;;;;0.50;0.47;;;4.20;99.90;;;;;;5051503;28;20222;-78
2022/01/28 01:36:43;;;;;;;0.68;0.65;;;4.20;99.90;;;;;;5051641;28;20197;-77
2022/01/28 01:39:11;;;;;;;1.88;1.77;;;4.20;99.90;;;;;;5050494;28;20218;-77
2022/01/28 01:41:43;;;;;;;0.60;0.60;;;4.20;99.90;;;;;;5051181;28;20206;-77
2022/01/28 01:44:20;;;;;;;1.83;1.73;;;4.20;99.90;;;;;;5051332;28;20185;-78
2022/01/28 01:47:12;;;;;;;0.40;0.40;;;4.10;99.90;;;;;;5051646;28;20179;-78
2022/01/28 01:52:20;;;;;;;1.20;1.13;;;4.00;99.90;;;;;;5054397;28;20232;-78
2022/01/28 01:54:46;;;;;;;0.85;0.85;;;4.00;99.90;;;;;;5055256;28;20190;-78
2022/01/28 01:57:14;;;;;;;0.50;0.50;;;4.00;99.90;;;;;;5056265;28;20198;-78
2022/01/28 01:59:42;;;;;;;0.40;0.40;;;4.00;99.90;;;;;;5055915;28;20306;-78
2022/01/28 02:02:11;;;;;;;0.40;0.40;;;4.00;99.90;;;;;;5055079;28;20245;-78
2022/01/28 02:04:38;;;;;;;1.25;1.25;;;3.90;99.90;;;;;;5055108;28;20203;-78
2022/01/28 02:07:05;;;;;;;0.40;0.40;;;3.90;99.90;;;;;;5053786;28;20572;-78
2022/01/28 02:09:32;;;;;;;0.40;0.40;;;3.90;99.90;;;;;;5051786;28;20222;-78
2022/01/28 02:11:59;;;;;;;0.40;0.40;;;3.90;99.90;;;;;;5050630;28;20228;-78
2022/01/28 02:14:26;;;;;;;0.68;0.68;;;3.90;99.90;;;;;;5050540;28;20703;-78
2022/01/28 02:16:52;;;;;;;0.70;0.70;;;3.90;99.90;;;;;;5051519;28;20248;-77
2022/01/28 02:19:20;;;;;;;5.82;1.15;;;4.00;99.90;;;;;;5050044;28;20660;-78
2022/01/28 02:21:50;;;;;;;0.40;0.40;;;4.00;99.90;;;;;;5051026;28;20198;-78
2022/01/28 02:24:23;;;;;;;0.60;0.60;;;4.10;99.90;;;;;;5051038;28;20226;-78
2022/01/28 02:26:50;;;;;;;1.20;0.70;;;4.10;99.90;;;;;;5051149;28;20266;-78
2022/01/28 02:29:26;;;;;;;0.60;0.60;;;4.20;99.90;;;;;;5050084;28;20231;-78
2022/01/28 02:31:53;;;;;;;0.40;0.40;;;4.30;99.90;;;;;;5050616;28;20684;-78
2022/01/28 02:34:20;;;;;;;0.40;0.40;;;4.40;99.90;;;;;;5050168;28;20692;-78
2022/01/28 02:36:48;;;;;;;0.40;0.40;;;4.50;99.90;;;;;;5051935;28;20201;-78
2022/01/28 02:39:15;;;;;;;0.40;0.40;;;4.50;99.90;;;;;;5054102;28;20273;-78
2022/01/28 02:41:45;;;;;;;0.60;0.60;;;4.50;99.90;;;;;;5054152;28;20195;-77
2022/01/28 02:44:19;;;;;;;0.50;0.40;;;4.40;99.90;;;;;;5054008;28;20245;-78
2022/01/28 02:46:56;;;;;;;0.40;0.40;;;4.40;99.90;;;;;;5054385;28;20194;-78
2022/01/28 02:49:25;;;;;;;3.08;0.80;;;4.30;99.90;;;;;;5053912;28;20218;-77
2022/01/28 02:51:54;;;;;;;0.80;0.80;;;4.30;99.90;;;;;;5053236;28;20190;-78
2022/01/28 02:54:20;;;;;;;1.90;0.95;;;4.30;99.90;;;;;;5054051;28;20214;-78
2022/01/28 02:56:50;;;;;;;0.40;0.40;;;4.30;99.90;;;;;;5054242;28;20197;-78
2022/01/28 02:59:17;;;;;;;0.40;0.30;;;4.20;99.90;;;;;;5053336;28;20214;-78
2022/01/28 03:01:44;;;;;;;1.17;0.77;;;4.20;99.90;;;;;;5054316;28;20205;-78
2022/01/28 03:04:21;;;;;;;0.40;0.40;;;4.20;99.90;;;;;;5053475;28;20202;-78
2022/01/28 03:06:48;;;;;;;0.50;0.40;;;4.20;99.90;;;;;;5053821;28;20641;-77
2022/01/28 03:09:19;;;;;;;0.40;0.30;;;4.20;99.90;;;;;;5053683;28;20253;-78
2022/01/28 03:11:58;;;;;;;0.50;0.50;;;4.10;99.90;;;;;;5054088;28;20289;-78
2022/01/28 03:14:36;;;;;;;0.40;0.40;;;4.00;99.90;;;;;;5053547;28;20222;-76
2022/01/28 03:17:11;;;;;;;0.50;0.50;;;4.00;99.90;;;;;;5053737;28;20273;-78
2022/01/28 03:19:48;;;;;;;0.57;0.57;;;4.00;99.90;;;;;;5052804;28;20730;-77
2022/01/28 03:22:15;;;;;;;0.40;0.40;;;3.90;99.90;;;;;;5053833;28;20673;-78
2022/01/28 03:24:46;;;;;;;1.45;1.35;;;3.90;99.90;;;;;;5053484;28;20187;-77
2022/01/28 03:27:21;;;;;;;0.40;0.40;;;3.80;99.90;;;;;;5053592;28;20179;-78
2022/01/28 03:29:47;;;;;;;5.55;1.70;;;3.80;99.90;;;;;;5052929;28;20206;-78
2022/01/28 03:32:14;;;;;;;0.50;0.50;;;3.80;99.90;;;;;;5053915;28;20191;-78
2022/01/28 03:34:41;;;;;;;0.40;0.40;;;3.80;99.90;;;;;;5052825;28;20691;-78
2022/01/28 03:37:09;;;;;;;5.60;5.28;;;3.80;99.90;;;;;;5053519;28;20209;-78
2022/01/28 03:39:36;;;;;;;0.50;0.50;;;3.80;99.90;;;;;;5052598;28;20272;-78
2022/01/28 03:42:05;;;;;;;0.40;0.40;;;3.80;99.90;;;;;;5053216;28;20195;-78
2022/01/28 03:44:32;;;;;;;0.55;0.55;;;3.80;99.90;;;;;;5053095;28;20298;-76
2022/01/28 03:46:58;;;;;;;0.40;0.40;;;3.80;99.90;;;;;;5053220;28;20253;-78
2022/01/28 03:49:25;;;;;;;9.38;1.85;;;3.80;99.90;;;;;;5052741;28;20272;-77
2022/01/28 03:51:52;;;;;;;0.40;0.40;;;3.80;99.90;;;;;;5052723;28;20248;-78
2022/01/28 03:54:18;;;;;;;0.40;0.40;;;3.70;99.90;;;;;;5052607;28;20222;-78
2022/01/28 03:56:45;;;;;;;0.40;0.40;;;3.70;99.90;;;;;;5052789;28;20244;-78
2022/01/28 03:59:13;;;;;;;0.40;0.40;;;3.60;99.90;;;;;;5052180;28;20225;-78
2022/01/28 04:01:41;;;;;;;0.82;0.60;;;3.70;99.90;;;;;;5054430;28;20198;-80
2022/01/28 04:04:57;;;;;;;3.67;2.85;;;3.70;99.90;;;;;;5054365;28;20226;-79
2022/01/28 04:12:38;;;;;;;0.40;0.40;;;3.90;99.90;;;;;;5055100;28;20182;-79
2022/01/28 04:15:21;;;;;;;2.38;1.30;;;4.00;99.90;;;;;;5054088;28;20249;-79
2022/01/28 04:17:49;;;;;;;5.20;2.45;;;4.00;99.90;;;;;;5054506;28;20217;-79
2022/01/28 04:20:16;;;;;;;3.55;1.90;;;4.10;99.90;;;;;;5053952;28;20734;-79
2022/01/28 04:22:42;;;;;;;0.43;0.40;;;4.20;99.90;;;;;;5054139;28;20229;-80
2022/01/28 04:25:10;;;;;;;0.40;0.40;;;4.20;99.90;;;;;;5053733;28;20195;-79
2022/01/28 04:27:36;;;;;;;0.40;0.40;;;4.20;99.90;;;;;;5053397;28;20228;-79
2022/01/28 04:30:04;;;;;;;2.15;1.85;;;4.30;99.90;;;;;;5052939;28;20202;-80
2022/01/28 04:32:33;;;;;;;1.73;0.52;;;4.30;99.90;;;;;;5052721;28;20196;-78
2022/01/28 04:34:59;;;;;;;0.40;0.40;;;4.40;99.90;;;;;;5053733;28;20230;-79
2022/01/28 04:37:32;;;;;;;0.40;0.40;;;4.30;99.90;;;;;;5053233;28;20201;-79
2022/01/28 04:40:07;;;;;;;0.40;0.30;;;4.20;99.90;;;;;;5053267;28;20660;-79
2022/01/28 04:42:48;;;;;;;0.43;0.40;;;4.20;99.90;;;;;;5053619;28;20188;-79
2022/01/28 04:45:22;;;;;;;0.50;0.40;;;4.20;99.90;;;;;;5053491;28;20175;-79
2022/01/28 04:48:02;;;;;;;0.40;0.40;;;4.10;99.90;;;;;;5053094;28;20218;-79
2022/01/28 04:50:37;;;;;;;0.50;0.40;;;4.10;99.90;;;;;;5052632;28;20197;-79
2022/01/28 04:53:23;;;;;;;0.40;0.40;;;4.10;99.90;;;;;;5052538;28;20380;-79
2022/01/28 04:56:16;;;;;;;0.50;0.40;;;4.10;99.90;;;;;;5053217;28;20229;-79
2022/01/28 04:58:58;;;;;;;0.50;0.40;;;4.00;99.90;;;;;;5052901;28;20230;-79
2022/01/28 05:04:26;;;;;;;0.50;0.40;;;3.80;99.90;;;;;;5053394;28;20185;-79
2022/01/28 05:07:25;;;;;;;0.50;0.40;;;3.70;99.90;;;;;;5052897;28;20629;-79
2022/01/28 05:16:19;;;;;;;0.60;0.60;;;3.60;99.90;;;;;;5010878;28;20199;-79
2022/01/28 05:24:46;;;;;;;0.40;0.40;;;3.70;99.90;;;;;;5052612;28;20698;-79
2022/01/28 05:27:14;;;;;;;0.50;0.50;;;3.80;99.90;;;;;;5052296;28;20194;-81
2022/01/28 05:29:41;;;;;;;0.40;0.35;;;3.80;99.90;;;;;;5052440;28;20660;-79
2022/01/28 05:32:09;;;;;;;0.40;0.40;;;3.80;99.90;;;;;;5053113;28;20225;-80
2022/01/28 05:34:35;;;;;;;0.40;0.40;;;3.70;99.90;;;;;;5053114;28;20632;-79
2022/01/28 05:37:04;;;;;;;0.40;0.40;;;3.70;99.90;;;;;;5053074;28;20595;-79
2022/01/28 05:39:31;;;;;;;0.40;0.40;;;3.70;99.90;;;;;;5052799;28;20218;-79
2022/01/28 05:41:58;;;;;;;0.40;0.40;;;3.70;99.90;;;;;;5052731;28;20194;-80
2022/01/28 05:44:26;;;;;;;0.40;0.40;;;3.70;99.90;;;;;;5052946;28;20248;-80
2022/01/28 05:46:56;;;;;;;0.50;0.50;;;3.70;99.90;;;;;;5052977;28;20201;-80
2022/01/28 05:49:23;;;;;;;0.40;0.40;;;3.70;99.90;;;;;;5052655;28;20222;-79
2022/01/28 05:51:50;;;;;;;0.40;0.40;;;3.70;99.90;;;;;;5052407;28;20198;-77
2022/01/28 05:54:18;;;;;;;0.40;0.40;;;3.70;99.90;;;;;;5053348;28;20215;-80
2022/01/28 05:56:45;;;;;;;0.50;0.50;;;3.70;99.90;;;;;;5053205;28;20691;-79
2022/01/28 05:59:11;;;;;;;0.40;0.40;;;3.80;99.90;;;;;;5052407;22;20571;-80
2022/01/28 06:01:38;;;;;;;0.40;0.40;;;3.90;99.90;;;;;;5031724;28;20660;-80
2022/01/28 06:04:05;;;;;;;0.40;0.40;;;3.90;99.90;;;;;;5033995;28;20711;-80
2022/01/28 06:06:32;;;;;;;0.40;0.40;;;4.00;99.90;;;;;;5033742;28;20200;-81
2022/01/28 06:08:59;;;;;;;0.40;0.40;;;4.00;99.90;;;;;;5033860;28;20219;-79
2022/01/28 06:11:27;;;;;;;0.40;0.40;;;4.00;99.90;;;;;;5035518;28;20210;-80
2022/01/28 06:13:54;;;;;;;0.40;0.40;;;4.00;99.90;;;;;;5038687;28;20215;-80
2022/01/28 06:16:21;;;;;;;0.40;0.40;;;4.10;99.90;;;;;;5037956;28;20194;-80
2022/01/28 06:18:48;;;;;;;0.40;0.40;;;4.10;99.90;;;;;;5038730;28;20712;-77
2022/01/28 06:21:16;;;;;;;0.50;0.50;;;4.10;99.90;;;;;;5037916;28;20199;-80
2022/01/28 06:23:43;;;;;;;4.63;2.15;;;4.00;99.90;;;;;;5038545;28;20282;-80
2022/01/28 06:26:09;;;;;;;0.40;0.40;;;4.00;99.90;;;;;;5040503;28;20195;-79
2022/01/28 06:28:37;;;;;;;0.40;0.40;;;3.90;99.90;;;;;;5038274;28;20604;-79
2022/01/28 06:31:04;;;;;;;0.90;0.90;;;3.90;99.90;;;;;;5037975;28;20248;-80
2022/01/28 06:33:31;;;;;;;0.40;0.40;;;3.90;99.90;;;;;;5038661;28;20204;-80
2022/01/28 06:35:57;;;;;;;1.60;1.52;;;3.80;99.90;;;;;;5037571;28;20192;-78
2022/01/28 06:38:25;;;;;;;0.40;0.40;;;3.70;99.90;;;;;;5037159;28;20248;-77
2022/01/28 06:40:52;;;;;;;0.40;0.40;;;3.70;99.90;;;;;;5036646;28;20275;-78
2022/01/28 06:43:19;;;;;;;0.40;0.40;;;3.70;99.90;;;;;;5037051;28;20607;-79
2022/01/28 06:45:47;;;;;;;0.40;0.35;;;3.70;99.90;;;;;;5037876;28;20731;-79
2022/01/28 06:48:16;;;;;;;0.40;0.40;;;3.70;99.90;;;;;;5037742;28;20200;-80
2022/01/28 06:50:44;;;;;;;0.40;0.40;;;3.80;99.90;;;;;;5036318;28;20195;-80
2022/01/28 06:53:11;;;;;;;0.80;0.80;;;3.80;99.90;;;;;;5036872;28;20716;-79
2022/01/28 06:55:38;;;;;;;0.47;0.47;;;3.80;99.90;;;;;;5036992;28;20242;-79
2022/01/28 06:58:07;;;;;;;0.40;0.40;;;3.90;99.90;;;;;;5038307;28;20199;-80
2022/01/28 07:00:37;;;;;;;0.40;0.40;;;3.90;99.90;;;;;;5036617;28;20203;-80
2022/01/28 07:03:05;;;;;;;0.40;0.40;;;4.00;99.90;;;;;;5038501;28;20678;-79
2022/01/28 07:05:32;;;;;;;0.40;0.40;;;4.00;99.90;;;;;;5036846;28;20556;-79
2022/01/28 07:07:59;;;;;;;0.40;0.40;;;4.00;99.90;;;;;;5037345;28;20202;-79
2022/01/28 07:10:26;;;;;;;0.40;0.40;;;3.90;99.90;;;;;;5037305;28;20731;-79
2022/01/28 07:12:54;;;;;;;0.50;0.50;;;3.90;99.90;;;;;;5037507;28;20273;-79
2022/01/28 07:15:23;;;;;;;0.40;0.40;;;3.80;99.90;;;;;;5037073;28;20310;-79
2022/01/28 07:17:50;;;;;;;3.20;1.80;;;3.70;99.90;;;;;;5036473;28;20199;-82
2022/01/28 07:20:18;;;;;;;0.40;0.40;;;3.70;99.90;;;;;;5036764;28;20627;-82
2022/01/28 07:22:45;;;;;;;1.80;1.70;;;3.60;99.90;;;;;;5036409;28;20290;-81
2022/01/28 07:25:11;;;;;;;0.40;0.40;;;3.60;99.90;;;;;;5037168;28;20265;-81
2022/01/28 07:27:38;;;;;;;0.40;0.40;;;3.50;99.90;;;;;;5036319;28;20198;-82
2022/01/28 07:30:06;;;;;;;0.40;0.40;;;3.40;99.90;;;;;;5035945;28;20211;-82
2022/01/28 07:32:33;;;;;;;0.40;0.40;;;3.40;99.90;;;;;;5036588;28;20199;-80
2022/01/28 07:35:00;;;;;;;0.40;0.40;;;3.40;99.90;;;;;;5037024;28;20338;-82
2022/01/28 07:37:28;;;;;;;0.40;0.40;;;3.40;99.90;;;;;;5037154;28;20202;-82
2022/01/28 07:39:55;;;;;;;1.13;1.02;;;3.40;99.90;;;;;;5036573;28;20211;-81
2022/01/28 07:42:22;;;;;;;0.40;0.40;;;3.40;99.90;;;;;;5037045;28;20290;-81
2022/01/28 07:44:49;;;;;;;0.40;0.32;;;3.50;99.90;;;;;;5038366;28;20196;-80
2022/01/28 07:47:16;;;;;;;0.40;0.40;;;3.50;99.90;;;;;;5037498;28;20620;-79
2022/01/28 07:49:42;;;;;;;0.40;0.40;;;3.50;99.90;;;;;;5036092;28;20219;-81
2022/01/28 07:52:09;;;;;;;0.40;0.40;;;3.50;99.90;;;;;;5036976;28;20199;-77
2022/01/28 07:54:44;;;;;;;0.40;0.40;;;3.50;99.90;;;;;;5037699;28;20215;-81
2022/01/28 07:57:11;;;;;;;0.40;0.40;;;3.50;99.90;;;;;;5038024;28;20187;-81
2022/01/28 07:59:38;;;;;;;0.40;0.38;;;3.60;99.90;;;;;;5037069;28;20229;-80
2022/01/28 08:02:05;;;;;;;0.40;0.40;;;3.70;99.90;;;;;;5037375;28;20199;-80
2022/01/28 08:04:32;;;;;;;0.40;0.30;;;3.70;99.90;;;;;;5037017;28;20191;-81
2022/01/28 08:06:58;;;;;;;0.40;0.30;;;3.80;99.90;;;;;;5037710;28;20282;-80
2022/01/28 08:09:25;;;;;;;0.40;0.30;;;3.90;99.90;;;;;;5036686;28;20219;-81
2022/01/28 08:11:53;;;;;;;0.88;0.88;;;4.00;99.90;;;;;;5036990;28;20203;-81
2022/01/28 08:14:20;;;;;;;0.63;0.63;;;4.00;99.90;;;;;;5036973;28;20215;-78
2022/01/28 08:16:46;;;;;;;0.40;0.40;;;4.20;99.90;;;;;;5037099;28;20206;-81
2022/01/28 08:19:13;;;;;;;3.15;1.52;;;4.30;99.90;;;;;;5036396;28;20293;-81
2022/01/28 08:21:40;;;;;;;0.40;0.40;;;4.50;99.90;;;;;;5037343;28;20253;-81
2022/01/28 08:24:06;;;;;;;0.40;0.30;;;4.70;99.90;;;;;;5037492;28;20199;-79
2022/01/28 08:26:33;;;;;;;0.40;0.40;;;4.90;99.90;;;;;;5040536;28;20207;-81
2022/01/28 08:29:01;;;;;;;0.40;0.40;;;5.20;99.90;;;;;;5042329;28;20863;-80
2022/01/28 08:31:28;;;;;;;0.40;0.38;;;5.50;99.90;;;;;;5041779;28;20251;-81
2022/01/28 08:33:56;;;;;;;0.88;0.60;;;5.60;99.90;;;;;;5042998;28;20221;-82
2022/01/28 08:36:22;;;;;;;0.50;0.40;;;5.90;99.90;;;;;;5042261;28;20215;-80
2022/01/28 08:38:53;;;;;;;0.88;0.82;;;6.00;99.90;;;;;;5043974;28;20215;-80
2022/01/28 08:41:20;;;;;;;0.45;0.40;;;6.00;99.90;;;;;;5041289;28;20195;-81
2022/01/28 08:43:47;;;;;;;0.47;0.40;;;6.00;99.90;;;;;;5036349;28;20192;-80
2022/01/28 08:46:15;;;;;;;0.50;0.40;;;5.90;99.90;;;;;;5036487;28;20191;-80
2022/01/28 08:48:41;;;;;;;0.40;0.30;;;5.90;99.90;;;;;;5036502;28;20764;-81
2022/01/28 08:51:08;;;;;;;0.50;0.40;;;6.10;99.90;;;;;;5035656;28;20208;-76
2022/01/28 08:53:38;;;;;;;1.67;1.63;;;6.10;99.90;;;;;;5036518;28;20346;-80
2022/01/28 08:56:05;;;;;;;1.02;1.02;;;6.10;99.90;;;;;;5038735;28;20244;-80
2022/01/28 08:58:32;;;;;;;1.13;1.13;;;6.30;99.90;;;;;;5043989;28;20285;-81
2022/01/28 09:00:58;;;;;;;0.50;0.40;;;6.30;99.90;;;;;;5044781;28;20213;-79
2022/01/28 09:03:26;;;;;;;0.50;0.50;;;6.30;99.90;;;;;;5044715;28;20216;-80
2022/01/28 09:05:53;;;;;;;0.50;0.40;;;6.40;99.90;;;;;;5047713;28;20190;-81
2022/01/28 09:08:20;;;;;;;0.50;0.40;;;6.80;99.90;;;;;;5047074;28;20193;-81
2022/01/28 09:10:57;;;;;;;0.50;0.40;;;7.90;99.90;;;;;;5043988;28;20218;-80
2022/01/28 09:13:26;;;;;;;0.50;0.40;;;9.20;99.90;;;;;;5046179;28;20225;-80
2022/01/28 09:15:56;;;;;;;0.63;0.63;;;10.40;99.90;;;;;;5045610;28;20217;-81
2022/01/28 09:18:24;;;;;;;0.50;0.40;;;11.80;99.90;;;;;;5041224;28;20206;-79
2022/01/28 09:20:52;;;;;;;0.50;0.40;;;13.00;99.90;;;;;;5034399;28;20446;-82
2022/01/28 09:23:19;;;;;;;0.50;0.40;;;13.50;99.90;;;;;;5034779;28;20467;-80
2022/01/28 09:25:45;;;;;;;1.27;0.60;;;13.60;99.90;;;;;;5037247;28;20489;-81
2022/01/28 09:28:12;;;;;;;0.50;0.40;;;13.40;99.90;;;;;;5041239;28;20439;-83
2022/01/28 09:30:39;;;;;;;1.90;1.80;;;13.40;99.90;;;;;;5039935;28;20470;-82
2022/01/28 09:33:06;;;;;;;0.50;0.40;;;13.40;99.90;;;;;;5040938;28;20446;-80
2022/01/28 09:35:34;;;;;;;0.97;0.97;;;13.40;99.90;;;;;;5037364;28;20848;-81
2022/01/28 09:38:03;;;;;;;0.50;0.40;;;13.90;99.90;;;;;;5035757;28;20442;-82
2022/01/28 09:40:30;;;;;;;0.50;0.40;;;14.10;99.90;;;;;;5037391;28;20442;-81
2022/01/28 09:42:57;;;;;;;0.50;0.40;;;13.90;99.90;;;;;;5041635;28;20846;-81
2022/01/28 09:45:25;;;;;;;0.50;0.40;;;13.70;99.90;;;;;;5041763;28;20441;-82
2022/01/28 09:47:55;;;;;;;0.50;0.40;;;13.00;99.90;;;;;;5046712;28;20434;-80
2022/01/28 09:50:22;;;;;;;0.67;0.67;;;12.70;99.90;;;;;;5039443;28;21002;-81
2022/01/28 09:52:49;;;;;;;0.50;0.40;;;11.90;99.90;;;;;;5039257;28;20491;-80
2022/01/28 09:55:18;;;;;;;0.70;0.50;;;10.90;99.90;;;;;;5039298;28;20211;-78
2022/01/28 09:57:45;;;;;;;0.85;0.85;;;10.50;99.90;;;;;;5039986;28;20456;-80
2022/01/28 10:00:13;;;;;;;0.50;0.40;;;10.40;99.90;;;;;;5038924;28;20226;-79
2022/01/28 10:02:52;;;;;;;0.50;0.40;;;10.20;99.90;;;;;;5039313;28;20201;-80
2022/01/28 10:05:24;;;;;;;0.50;0.40;;;10.30;99.90;;;;;;5039789;28;20245;-81
2022/01/28 10:08:02;;;;;;;0.50;0.40;;;10.30;99.90;;;;;;5044216;28;20187;-81
2022/01/28 10:10:45;;;;;;;0.50;0.40;;;10.60;99.90;;;;;;5038712;28;20310;-81
2022/01/28 10:13:15;;;;;;;0.73;0.73;;;10.80;99.90;;;;;;5040386;28;20215;-76
2022/01/28 10:15:54;;;;;;;0.50;0.40;;;11.20;99.90;;;;;;5040305;28;20310;-81
2022/01/28 10:18:21;;;;;;;0.50;0.40;;;10.90;99.90;;;;;;5041166;28;20426;-80
2022/01/28 10:20:47;;;;;;;0.50;0.50;;;11.00;99.90;;;;;;5038276;28;20253;-81
2022/01/28 10:23:14;;;;;;;0.50;0.40;;;10.90;99.90;;;;;;5040520;28;20253;-80
2022/01/28 10:25:43;;;;;;;0.50;0.40;;;10.60;99.90;;;;;;5039781;28;20446;-80
2022/01/28 10:28:11;;;;;;;0.50;0.40;;;10.60;99.90;;;;;;5040938;28;20527;-81
2022/01/28 10:30:40;;;;;;;0.50;0.40;;;10.90;99.90;;;;;;5039196;28;20552;-78
2022/01/28 10:33:15;;;;;;;0.50;0.40;;;10.80;99.90;;;;;;5038681;28;20277;-82
2022/01/28 10:35:50;;;;;;;0.50;0.40;;;10.40;99.90;;;;;;5038711;28;20247;-81
2022/01/28 10:38:32;;;;;;;1.40;0.85;;;10.30;99.90;;;;;;5038754;28;20788;-80
2022/01/28 10:41:14;;;;;;;2.88;1.05;;;10.10;99.90;;;;;;5035993;28;20282;-81
2022/01/28 10:43:46;;;;;;;0.50;0.40;;;10.20;99.90;;;;;;5038852;28;20554;-82
2022/01/28 10:46:12;;;;;;;0.70;0.50;;;10.50;99.90;;;;;;5039359;28;20219;-79
2022/01/28 10:48:50;;;;;;;0.50;0.40;;;10.80;99.90;;;;;;5039293;28;20465;-81
2022/01/28 10:51:18;;;;;;;0.50;0.40;;;11.20;99.90;;;;;;5040492;28;20249;-80
2022/01/28 10:54:03;;;;;;;0.50;0.40;;;11.80;99.90;;;;;;5039296;28;20438;-81
2022/01/28 10:56:44;;;;;;;0.50;0.40;;;11.90;99.90;;;;;;5039648;28;20628;-79
2022/01/28 10:59:12;;;;;;;0.50;0.40;;;11.40;99.90;;;;;;5036606;28;20469;-79
2022/01/28 11:01:40;;;;;;;0.50;0.40;;;11.00;99.90;;;;;;5038999;28;20504;-80
2022/01/28 11:04:07;;;;;;;0.50;0.40;;;10.90;99.90;;;;;;5038322;28;20827;-84
2022/01/28 11:06:34;;;;;;;0.50;0.40;;;10.90;99.90;;;;;;5037370;28;20203;-80
2022/01/28 11:09:02;;;;;;;0.50;0.40;;;10.80;99.90;;;;;;5036899;28;20462;-80
2022/01/28 11:11:29;;;;;;;0.50;0.40;;;10.60;99.90;;;;;;5037258;28;20544;-82
2022/01/28 11:13:57;;;;;;;0.50;0.40;;;10.40;99.90;;;;;;5036491;28;20456;-78
2022/01/28 11:16:24;;;;;;;0.50;0.40;;;10.40;99.90;;;;;;5038265;28;20215;-80
2022/01/28 11:18:50;;;;;;;0.50;0.40;;;10.20;99.90;;;;;;5038061;28;20896;-79
2022/01/28 11:21:23;;;;;;;3.90;0.90;;;10.00;99.90;;;;;;5037854;28;20469;-79
2022/01/28 11:23:56;;;;;;;0.50;0.40;;;9.70;99.90;;;;;;5038790;28;20206;-81
2022/01/28 11:26:31;;;;;;;0.50;0.40;;;9.40;99.90;;;;;;5038969;28;20190;-80
2022/01/28 11:29:02;;;;;;;0.50;0.40;;;9.20;99.90;;;;;;5038565;28;20219;-77
2022/01/28 11:31:43;;;;;;;0.50;0.40;;;9.20;99.90;;;;;;5037873;28;20541;-82
2022/01/28 11:34:18;;;;;;;0.50;0.40;;;9.20;99.90;;;;;;5038062;28;20198;-81
2022/01/28 11:36:45;;;;;;;0.50;0.40;;;9.50;99.90;;;;;;5037527;28;20719;-81
2022/01/28 11:39:28;;;;;;;0.50;0.40;;;9.90;99.90;;;;;;5036769;28;20281;-81
2022/01/28 11:42:06;;;;;;;1.15;0.60;;;10.40;99.90;;;;;;5037883;28;20211;-79
2022/01/28 11:44:52;;;;;;;0.50;0.40;;;10.70;99.90;;;;;;5038015;28;20195;-82
2022/01/28 11:47:24;;;;;;;0.50;0.50;;;10.70;99.90;;;;;;5037620;28;20611;-77
2022/01/28 11:49:55;;;;;;;0.50;0.40;;;10.80;99.90;;;;;;5037587;28;20214;-79
2022/01/28 11:52:25;;;;;;;0.50;0.40;;;10.80;99.90;;;;;;5037263;28;20199;-80
2022/01/28 11:54:53;;;;;;;0.50;0.40;;;11.10;99.90;;;;;;5036781;28;20195;-81
2022/01/28 11:57:23;;;;;;;0.95;0.80;;;10.80;99.90;;;;;;5037243;28;20238;-77
2022/01/28 11:59:51;;;;;;;0.50;0.40;;;11.00;99.90;;;;;;5037776;28;20219;-79
2022/01/28 12:02:21;;;;;;;0.50;0.40;;;11.30;99.90;;;;;;5036324;28;20691;-81
2022/01/28 12:04:48;;;;;;;0.50;0.40;;;11.90;99.90;;;;;;5037160;28;20528;-80
2022/01/28 12:07:22;;;;;;;0.50;0.40;;;12.60;99.90;;;;;;5036698;28;20489;-81
2022/01/28 12:09:51;;;;;;;0.50;0.40;;;13.00;99.90;;;;;;5035912;28;20454;-82
2022/01/28 12:12:25;;;;;;;0.67;0.67;;;13.60;99.90;;;;;;5036801;28;20442;-80
2022/01/28 12:15:05;;;;;;;0.50;0.40;;;14.20;99.90;;;;;;5037157;28;20455;-81
2022/01/28 12:17:40;;;;;;;0.60;0.53;;;14.20;99.90;;;;;;5035748;28;20510;-81
2022/01/28 12:20:23;;;;;;;0.50;0.40;;;14.10;99.90;;;;;;5036303;28;20461;-80
2022/01/28 12:23:04;;;;;;;0.50;0.40;;;14.00;99.90;;;;;;5037002;28;20434;-81
2022/01/28 12:25:47;;;;;;;0.50;0.40;;;13.70;99.90;;;;;;5036303;28;20438;-80
2022/01/28 12:28:14;;;;;;;3.27;0.73;;;13.20;99.90;;;;;;5036415;28;20443;-81
2022/01/28 12:30:44;;;;;;;0.50;0.40;;;12.40;99.90;;;;;;5036018;28;20450;-80
2022/01/28 12:33:11;;;;;;;0.50;0.40;;;11.70;99.90;;;;;;5036483;28;20503;-79
2022/01/28 12:35:38;;;;;;;0.60;0.50;;;11.20;99.90;;;;;;5036199;28;20478;-79
2022/01/28 12:38:06;;;;;;;0.50;0.40;;;10.70;99.90;;;;;;5035984;28;20684;-81
2022/01/28 12:40:36;;;;;;;0.80;0.80;;;10.30;99.90;;;;;;5035202;28;20235;-82
2022/01/28 12:43:03;;;;;;;0.50;0.40;;;10.20;99.90;;;;;;5036812;28;20426;-82
2022/01/28 12:45:31;;;;;;;0.50;0.40;;;9.80;99.90;;;;;;5035152;28;20227;-81
2022/01/28 12:47:59;;;;;;;0.50;0.40;;;9.70;99.90;;;;;;5036010;28;20748;-81
2022/01/28 12:50:28;;;;;;;0.60;0.50;;;9.60;99.90;;;;;;5036282;28;20218;-81
2022/01/28 12:52:55;;;;;;;6.88;1.90;;;9.50;99.90;;;;;;5036108;28;20246;-81
2022/01/28 12:55:31;;;;;;;0.60;0.60;;;9.40;99.90;;;;;;5036922;28;20196;-81
2022/01/28 12:57:58;;;;;;;0.50;0.40;;;9.60;99.90;;;;;;5036407;28;20228;-81
2022/01/28 13:00:25;;;;;;;0.50;0.40;;;9.70;99.90;;;;;;5035789;28;20661;-81
2022/01/28 13:02:52;;;;;;;0.60;0.40;;;10.00;99.90;;;;;;5036675;28;20245;-79
2022/01/28 13:05:33;;;;;;;0.50;0.43;;;10.00;99.90;;;;;;5035752;28;20198;-81
2022/01/28 13:10:44;;;;;;;0.50;0.40;;;9.80;99.90;;;;;;5035011;28;20263;-80
2022/01/28 13:13:13;;;;;;;0.50;0.40;;;9.80;99.90;;;;;;5035914;28;20199;-82
2022/01/28 13:15:40;;;;;;;0.50;0.40;;;9.80;99.90;;;;;;5035745;28;20215;-81
2022/01/28 13:18:08;;;;;;;0.50;0.40;;;9.90;99.90;;;;;;5035479;28;20628;-80
2022/01/28 13:20:38;;;;;;;0.50;0.40;;;10.00;99.90;;;;;;5033914;28;20195;-80
2022/01/28 13:23:05;;;;;;;0.50;0.40;;;10.40;99.90;;;;;;5036030;28;20581;-83
2022/01/28 13:25:32;;;;;;;0.50;0.40;;;10.40;99.90;;;;;;5035539;28;20199;-81
2022/01/28 13:28:02;;;;;;;0.73;0.73;;;10.20;99.90;;;;;;5036199;28;20226;-81
2022/01/28 13:30:33;;;;;;;0.50;0.40;;;9.90;99.90;;;;;;5035550;28;20219;-80
2022/01/28 13:33:03;;;;;;;0.50;0.40;;;9.60;99.90;;;;;;5036278;28;20577;-81
2022/01/28 13:35:32;;;;;;;0.50;0.40;;;9.30;99.90;;;;;;5034669;28;20210;-82
2022/01/28 13:38:06;;;;;;;0.50;0.40;;;9.10;99.90;;;;;;5035632;28;20197;-81
2022/01/28 13:40:35;;;;;;;0.50;0.40;;;8.90;99.90;;;;;;5035423;28;20584;-79
2022/01/28 13:43:05;;;;;;;0.50;0.40;;;8.90;99.90;;;;;;5035917;28;20202;-81
2022/01/28 13:45:35;;;;;;;0.80;0.80;;;8.70;99.90;;;;;;5036138;28;20198;-80
2022/01/28 13:48:04;;;;;;;27.88;2.35;;;8.60;99.90;;;;;;5036550;28;20202;-81
2022/01/28 13:50:33;;;;;;;0.50;0.40;;;8.40;99.90;;;;;;5036038;28;20295;-82
2022/01/28 13:53:35;;;;;;;0.50;0.40;;;8.20;99.90;;;;;;5036749;28;20225;-79